createdAt,value
2023-06-07T05:31:26.022Z,43.64
2023-06-07T05:32:26.858Z,42.78
2023-06-07T05:33:25.875Z,42.15
2023-06-07T05:34:26.825Z,41.77
2023-06-07T05:35:26.899Z,41.20
2023-06-07T05:36:26.825Z,41.14
2023-06-07T05:37:25.847Z,40.56
2023-06-07T05:38:25.799Z,40.24
2023-06-07T05:39:26.833Z,39.78
2023-06-07T05:40:25.801Z,39.56
2023-06-07T05:41:26.805Z,39.23
2023-06-07T05:42:26.785Z,38.64
2023-06-07T05:43:26.779Z,38.78
2023-06-07T05:44:25.775Z,38.89
2023-06-07T05:45:26.773Z,39.56
2023-06-07T05:46:26.814Z,38.75
2023-06-07T05:47:26.865Z,39.55
2023-06-07T05:48:25.742Z,39.02
2023-06-07T05:49:26.750Z,38.48
2023-06-07T05:50:26.725Z,38.15
2023-06-07T05:51:25.718Z,38.05
2023-06-07T05:52:26.737Z,38.27
2023-06-07T05:53:26.711Z,38.51
2023-06-07T05:54:25.707Z,38.93
2023-06-07T05:55:25.694Z,39.46
2023-06-07T05:56:26.730Z,40.09
2023-06-07T05:57:26.671Z,40.92
2023-06-07T05:58:26.686Z,41.39
2023-06-07T05:59:25.649Z,41.58
2023-06-07T06:00:26.642Z,41.77
2023-06-07T06:01:27.619Z,41.92
2023-06-07T06:02:26.815Z,41.89
2023-06-07T06:03:26.717Z,41.52
2023-06-07T06:04:26.632Z,41.53
2023-06-07T06:05:26.610Z,41.22
2023-06-07T06:06:26.617Z,41.29
2023-06-07T06:07:26.601Z,41.12
2023-06-07T06:08:26.648Z,40.67
2023-06-07T06:09:26.650Z,40.41
2023-06-07T06:10:26.860Z,40.28
2023-06-07T06:11:26.657Z,40.10
2023-06-07T06:12:26.738Z,39.87
2023-06-07T06:13:25.779Z,39.65
2023-06-07T06:14:26.827Z,39.30
2023-06-07T06:15:25.863Z,39.38
2023-06-07T06:16:26.928Z,39.83
2023-06-07T06:17:26.918Z,39.62
2023-06-07T06:18:25.929Z,38.97
2023-06-07T06:19:26.955Z,38.90
2023-06-07T06:20:25.944Z,39.16
2023-06-07T06:21:26.934Z,38.57
2023-06-07T06:22:26.925Z,38.74
2023-06-07T06:23:26.972Z,38.19
2023-06-07T06:24:25.938Z,39.27
2023-06-07T06:25:26.932Z,38.08
2023-06-07T06:26:26.062Z,38.50
2023-06-07T06:27:27.031Z,38.63
2023-06-07T06:28:26.991Z,39.40
2023-06-07T06:29:27.027Z,38.23
2023-06-07T06:30:27.037Z,37.72
2023-06-07T06:31:27.078Z,37.73
2023-06-07T06:32:26.175Z,37.17
2023-06-07T06:33:27.103Z,37.08
2023-06-07T06:34:27.182Z,37.19
2023-06-07T06:35:27.297Z,37.55
2023-06-07T06:36:27.272Z,38.33
2023-06-07T06:37:27.306Z,38.08
2023-06-07T06:38:27.364Z,38.26
2023-06-07T06:39:27.418Z,38.15
2023-06-07T06:40:27.561Z,37.61
2023-06-07T06:41:27.511Z,37.54
2023-06-07T06:42:26.564Z,37.53
2023-06-07T06:43:27.598Z,37.09
2023-06-07T06:44:27.635Z,37.16
2023-06-07T06:45:27.694Z,37.02
2023-06-07T06:46:27.724Z,36.79
2023-06-07T06:47:27.754Z,36.75
2023-06-07T06:48:27.785Z,37.25
2023-06-07T06:49:27.835Z,37.45
2023-06-07T06:50:33.028Z,36.99
2023-06-07T06:51:28.102Z,37.14
2023-06-07T06:52:27.884Z,38.36
2023-06-07T06:53:27.879Z,39.42
2023-06-07T06:54:27.861Z,39.95
2023-06-07T06:55:27.913Z,40.43
2023-06-07T06:56:28.578Z,40.93
2023-06-07T06:57:27.865Z,40.58
2023-06-07T06:58:27.839Z,40.75
2023-06-07T06:59:26.850Z,40.88
2023-06-07T07:00:27.829Z,41.40
2023-06-07T07:01:27.863Z,41.32
2023-06-07T07:02:26.910Z,41.02
2023-06-07T07:03:27.804Z,40.87
2023-06-07T07:04:27.882Z,40.93
2023-06-07T07:05:30.269Z,41.23
2023-06-07T07:06:27.782Z,41.15
2023-06-07T07:07:26.853Z,40.99
2023-06-07T07:08:27.756Z,40.98
2023-06-07T07:09:27.785Z,40.86
2023-06-07T07:10:26.751Z,40.98
2023-06-07T07:11:26.775Z,40.82
2023-06-07T07:12:27.741Z,41.10
2023-06-07T07:13:27.736Z,41.36
2023-06-07T07:14:26.759Z,41.50
2023-06-07T07:15:26.720Z,41.60
2023-06-07T07:16:26.745Z,41.68
2023-06-07T07:17:27.751Z,41.73
2023-06-07T07:18:27.702Z,41.64
2023-06-07T07:19:27.717Z,41.33
2023-06-07T07:20:26.697Z,41.60
2023-06-07T07:21:26.680Z,41.99
2023-06-07T07:22:29.000Z,41.29
2023-06-07T07:23:27.996Z,41.58
2023-06-07T07:24:27.787Z,41.96
2023-06-07T07:25:27.767Z,41.87
2023-06-07T07:26:26.780Z,42.07
2023-06-07T07:27:27.841Z,41.82
2023-06-07T07:28:27.795Z,41.94
2023-06-07T07:29:28.943Z,42.03
2023-06-07T07:30:26.783Z,41.79
2023-06-07T07:31:27.828Z,42.00
2023-06-07T07:32:27.896Z,41.62
2023-06-07T07:33:27.811Z,41.37
2023-06-07T07:34:26.885Z,41.17
2023-06-07T07:35:27.796Z,41.23
2023-06-07T07:36:27.802Z,41.26
2023-06-07T07:37:27.847Z,41.10
2023-06-07T07:38:27.832Z,41.08
2023-06-07T07:39:26.888Z,40.97
2023-06-07T07:40:26.864Z,40.86
2023-06-07T07:41:27.878Z,40.81
2023-06-07T07:42:27.852Z,41.27
2023-06-07T07:43:30.435Z,41.18
2023-06-07T07:44:27.082Z,41.00
2023-06-07T07:45:27.110Z,40.80
2023-06-07T07:46:28.625Z,40.81
2023-06-07T07:47:28.188Z,40.64
2023-06-07T07:48:28.158Z,40.42
2023-06-07T07:49:28.205Z,40.24
2023-06-07T07:50:28.214Z,40.20
2023-06-07T07:51:27.266Z,40.29
2023-06-07T07:52:28.591Z,39.76
2023-06-07T07:53:28.419Z,39.73
2023-06-07T07:54:28.398Z,39.08
2023-06-07T07:55:27.407Z,38.83
2023-06-07T07:56:28.421Z,38.65
2023-06-07T07:57:27.465Z,38.74
2023-06-07T07:58:27.521Z,38.67
2023-06-07T07:59:27.574Z,38.52
2023-06-07T08:00:28.601Z,38.52
2023-06-07T08:01:27.625Z,38.50
2023-06-07T08:02:27.735Z,38.52
2023-06-07T08:03:28.787Z,38.55
2023-06-07T08:04:27.676Z,38.54
2023-06-07T08:05:28.668Z,38.79
2023-06-07T08:06:27.752Z,38.86
2023-06-07T08:07:28.798Z,38.83
2023-06-07T08:08:28.836Z,38.80
2023-06-07T08:09:28.889Z,38.78
2023-06-07T08:10:28.998Z,38.75
2023-06-07T08:11:29.194Z,38.64
2023-06-07T08:12:29.079Z,38.59
2023-06-07T08:13:29.113Z,38.62
2023-06-07T08:14:28.159Z,38.58
2023-06-07T08:15:28.206Z,38.46
2023-06-07T08:16:29.278Z,38.38
2023-06-07T08:17:29.300Z,38.37
2023-06-07T08:18:29.298Z,38.45
2023-06-07T08:19:29.334Z,38.36
2023-06-07T08:20:29.378Z,38.40
2023-06-07T08:21:29.404Z,38.33
2023-06-07T08:22:29.416Z,38.29
2023-06-07T08:23:29.527Z,38.29
2023-06-07T08:24:29.482Z,38.34
2023-06-07T08:25:28.523Z,38.22
2023-06-07T08:26:29.550Z,38.25
2023-06-07T08:27:29.616Z,38.30
2023-06-07T08:28:29.627Z,38.19
2023-06-07T08:29:29.619Z,38.09
2023-06-07T08:30:29.649Z,37.93
2023-06-07T08:31:29.654Z,37.97
2023-06-07T08:32:28.695Z,37.77
2023-06-07T08:33:29.659Z,37.81
2023-06-07T08:34:31.850Z,37.74
2023-06-07T08:35:29.747Z,37.89
2023-06-07T08:36:29.792Z,37.63
2023-06-07T08:37:29.785Z,37.73
2023-06-07T08:38:28.766Z,37.69
2023-06-07T08:39:29.763Z,37.75
2023-06-07T08:40:29.753Z,37.43
2023-06-07T08:41:29.777Z,37.33
2023-06-07T08:42:30.124Z,37.37
2023-06-07T08:43:30.004Z,37.29
2023-06-07T08:44:29.615Z,37.32
2023-06-07T08:45:30.008Z,37.36
2023-06-07T08:46:29.014Z,37.48
2023-06-07T08:47:29.093Z,37.47
2023-06-07T08:48:29.058Z,37.49
2023-06-07T08:49:29.088Z,37.31
2023-06-07T08:50:30.120Z,36.76
2023-06-07T08:51:30.191Z,36.75
2023-06-07T08:52:30.234Z,36.45
2023-06-07T08:53:30.271Z,36.57
2023-06-07T08:54:30.322Z,36.74
2023-06-07T08:55:30.345Z,36.78
2023-06-07T08:56:30.506Z,36.76
2023-06-07T08:57:29.687Z,36.82
2023-06-07T08:58:30.510Z,36.69
2023-06-07T08:59:29.748Z,36.68
2023-06-07T09:00:29.563Z,36.68
2023-06-07T09:01:31.783Z,36.60
2023-06-07T09:02:29.646Z,36.59
2023-06-07T09:03:30.744Z,36.74
2023-06-07T09:04:30.612Z,36.68
2023-06-07T09:05:30.584Z,36.53
2023-06-07T09:06:30.576Z,36.47
2023-06-07T09:07:30.580Z,36.75
2023-06-07T09:08:30.581Z,36.75
2023-06-07T09:09:31.967Z,36.77
2023-06-07T09:10:30.554Z,36.54
2023-06-07T09:11:29.578Z,36.69
2023-06-07T09:12:30.569Z,36.83
2023-06-07T09:13:30.535Z,36.77
2023-06-07T09:14:30.520Z,36.83
2023-06-07T09:15:31.937Z,36.78
2023-06-07T09:16:29.657Z,36.79
2023-06-07T09:17:30.563Z,36.79
2023-06-07T09:18:30.545Z,36.70
2023-06-07T09:19:30.493Z,36.56
2023-06-07T09:20:30.490Z,36.64
2023-06-07T09:21:30.477Z,36.63
2023-06-07T09:22:30.512Z,36.61
2023-06-07T09:23:30.512Z,36.64
2023-06-07T09:24:30.473Z,36.71
2023-06-07T09:25:29.462Z,36.80
2023-06-07T09:26:30.461Z,36.67
2023-06-07T09:27:30.467Z,36.74
2023-06-07T09:28:29.418Z,36.91
2023-06-07T09:29:30.512Z,36.69
2023-06-07T09:30:30.414Z,36.72
2023-06-07T09:31:29.507Z,36.59
2023-06-07T09:32:32.723Z,36.60
2023-06-07T09:33:30.514Z,36.59
2023-06-07T09:34:30.395Z,36.68
2023-06-07T09:35:30.421Z,36.59
2023-06-07T09:36:29.440Z,36.56
2023-06-07T09:37:30.366Z,36.64
2023-06-07T09:38:30.375Z,36.66
2023-06-07T09:39:30.371Z,36.62
2023-06-07T09:40:29.353Z,36.22
2023-06-07T09:41:30.350Z,36.15
2023-06-07T09:42:30.357Z,36.33
2023-06-07T09:43:30.346Z,36.22
2023-06-07T09:44:29.314Z,36.16
2023-06-07T09:45:30.365Z,36.08
2023-06-07T09:46:30.354Z,36.26
2023-06-07T09:47:30.878Z,36.17
2023-06-07T09:48:30.390Z,36.03
2023-06-07T09:49:29.377Z,35.83
2023-06-07T09:50:29.273Z,35.85
2023-06-07T09:51:29.291Z,35.84
2023-06-07T09:52:31.080Z,37.03
2023-06-07T09:53:29.249Z,36.72
2023-06-07T09:54:29.265Z,38.02
2023-06-07T09:55:29.270Z,37.53
2023-06-07T09:56:29.397Z,37.36
2023-06-07T09:57:30.340Z,37.11
2023-06-07T09:58:29.342Z,37.58
2023-06-07T09:59:30.363Z,39.80
2023-06-07T10:00:30.433Z,37.89
2023-06-07T10:01:29.545Z,37.96
2023-06-07T10:02:30.721Z,37.29
2023-06-07T10:03:30.783Z,36.47
2023-06-07T10:04:29.773Z,36.39
2023-06-07T10:05:30.780Z,35.90
2023-06-07T10:06:29.802Z,35.61
2023-06-07T10:07:29.864Z,35.70
2023-06-07T10:08:30.908Z,35.73
2023-06-07T10:09:30.936Z,35.06
2023-06-07T10:10:30.930Z,34.81
2023-06-07T10:11:29.946Z,34.99
2023-06-07T10:12:31.078Z,35.53
2023-06-07T10:13:31.021Z,35.22
2023-06-07T10:14:31.035Z,35.06
2023-06-07T10:15:31.089Z,34.58
2023-06-07T10:16:30.087Z,35.20
2023-06-07T10:17:31.086Z,35.24
2023-06-07T10:18:31.144Z,35.14
2023-06-07T10:19:30.119Z,34.98
2023-06-07T10:20:31.101Z,34.73
2023-06-07T10:21:31.154Z,34.35
2023-06-07T10:22:31.138Z,34.83
2023-06-07T10:23:30.326Z,35.22
2023-06-07T10:24:31.205Z,34.82
2023-06-07T10:25:31.149Z,34.88
2023-06-07T10:26:31.155Z,34.43
2023-06-07T10:27:31.228Z,34.30
2023-06-07T10:28:31.243Z,35.38
2023-06-07T10:29:30.316Z,34.70
2023-06-07T10:30:30.340Z,34.51
2023-06-07T10:31:31.404Z,34.33
2023-06-07T10:32:30.500Z,34.68
2023-06-07T10:33:31.433Z,34.46
2023-06-07T10:34:31.454Z,34.58
2023-06-07T10:35:31.554Z,33.84
2023-06-07T10:36:30.468Z,34.25
2023-06-07T10:37:31.428Z,34.83
2023-06-07T10:38:31.466Z,33.31
2023-06-07T10:39:30.468Z,33.35
2023-06-07T10:40:31.522Z,33.90
2023-06-07T10:41:30.567Z,33.13
2023-06-07T10:42:30.605Z,33.22
2023-06-07T10:43:31.645Z,32.85
2023-06-07T10:44:30.675Z,32.42
2023-06-07T10:45:31.668Z,32.66
2023-06-07T10:46:30.861Z,32.97
2023-06-07T10:47:31.804Z,33.15
2023-06-07T10:48:31.760Z,33.07
2023-06-07T10:49:30.733Z,33.13
2023-06-07T10:50:31.725Z,33.28
2023-06-07T10:51:31.872Z,33.39
2023-06-07T10:52:30.750Z,33.45
2023-06-07T10:53:31.736Z,33.57
2023-06-07T10:54:30.780Z,33.59
2023-06-07T10:55:31.727Z,33.61
2023-06-07T10:56:31.777Z,33.53
2023-06-07T10:57:31.733Z,33.65
2023-06-07T10:58:31.786Z,33.75
2023-06-07T10:59:31.733Z,33.65
2023-06-07T11:00:30.866Z,33.78
2023-06-07T11:01:30.792Z,33.84
2023-06-07T11:02:32.045Z,33.75
2023-06-07T11:03:32.065Z,33.80
2023-06-07T11:04:30.908Z,33.84
2023-06-07T11:05:33.846Z,33.81
2023-06-07T11:06:31.759Z,33.92
2023-06-07T11:07:30.829Z,33.95
2023-06-07T11:08:30.740Z,33.93
2023-06-07T11:09:31.709Z,33.96
2023-06-07T11:10:31.794Z,33.95
2023-06-07T11:11:30.715Z,33.97
2023-06-07T11:12:30.730Z,33.98
2023-06-07T11:13:31.706Z,34.02
2023-06-07T11:14:30.757Z,34.01
2023-06-07T11:15:30.710Z,33.96
2023-06-07T11:16:31.698Z,33.95
2023-06-07T11:17:31.685Z,33.97
2023-06-07T11:18:30.689Z,33.99
2023-06-07T11:19:31.700Z,34.04
2023-06-07T11:20:31.723Z,34.04
2023-06-07T11:21:31.666Z,34.08
2023-06-07T11:22:30.629Z,33.89
2023-06-07T11:23:30.802Z,33.79
2023-06-07T11:24:31.741Z,33.90
2023-06-07T11:25:31.622Z,33.89
2023-06-07T11:26:31.620Z,33.95
2023-06-07T11:27:31.605Z,33.93
2023-06-07T11:28:30.657Z,33.98
2023-06-07T11:29:31.578Z,34.04
2023-06-07T11:30:30.568Z,34.09
2023-06-07T11:31:31.590Z,34.03
2023-06-07T11:32:32.368Z,34.09
2023-06-07T11:33:31.706Z,34.02
2023-06-07T11:34:31.576Z,34.14
2023-06-07T11:35:30.539Z,34.13
2023-06-07T11:36:30.548Z,34.09
2023-06-07T11:37:31.521Z,34.10
2023-06-07T11:38:31.525Z,34.10
2023-06-07T11:39:31.577Z,34.09
2023-06-07T11:40:30.504Z,34.09
2023-06-07T11:41:31.510Z,34.09
2023-06-07T11:42:30.486Z,34.07
2023-06-07T11:43:31.491Z,34.10
2023-06-07T11:44:31.472Z,34.07
2023-06-07T11:45:31.525Z,34.11
2023-06-07T11:46:30.499Z,34.12
2023-06-07T11:47:31.564Z,34.08
2023-06-07T11:48:31.770Z,34.18
2023-06-07T11:49:31.442Z,34.11
2023-06-07T11:50:31.420Z,34.07
2023-06-07T11:51:31.422Z,34.14
2023-06-07T11:52:31.440Z,34.14
2023-06-07T11:53:31.413Z,34.12
2023-06-07T11:54:31.389Z,34.12
2023-06-07T11:55:31.425Z,34.12
2023-06-07T11:56:31.414Z,34.14
2023-06-07T11:57:31.407Z,34.15
2023-06-07T11:58:31.479Z,34.16
2023-06-07T11:59:31.435Z,34.20
2023-06-07T12:00:30.569Z,34.12
2023-06-07T12:01:30.515Z,34.17
2023-06-07T12:02:30.576Z,34.21
2023-06-07T12:03:31.697Z,34.18
2023-06-07T12:04:30.700Z,34.16
2023-06-07T12:05:31.766Z,34.20
2023-06-07T12:06:30.832Z,34.19
2023-06-07T12:07:31.871Z,34.13
2023-06-07T12:08:31.856Z,34.13
2023-06-07T12:09:30.913Z,34.15
2023-06-07T12:10:30.980Z,34.13
2023-06-07T12:11:32.134Z,34.12
2023-06-07T12:12:32.082Z,34.13
2023-06-07T12:13:31.135Z,34.12
2023-06-07T12:14:32.181Z,34.13
2023-06-07T12:15:31.293Z,34.10
2023-06-07T12:16:31.406Z,34.09
2023-06-07T12:17:32.459Z,34.12
2023-06-07T12:18:32.457Z,34.12
2023-06-07T12:19:32.480Z,34.12
2023-06-07T12:20:31.544Z,34.19
2023-06-07T12:21:32.601Z,34.07
2023-06-07T12:22:31.676Z,34.05
2023-06-07T12:23:32.823Z,34.03
2023-06-07T12:24:32.772Z,34.12
2023-06-07T12:25:31.892Z,34.05
2023-06-07T12:26:32.915Z,34.04
2023-06-07T12:27:33.025Z,34.06
2023-06-07T12:28:33.052Z,34.07
2023-06-07T12:29:33.106Z,34.09
2023-06-07T12:30:33.049Z,34.12
2023-06-07T12:31:33.259Z,34.05
2023-06-07T12:32:32.316Z,34.12
2023-06-07T12:33:33.367Z,34.03
2023-06-07T12:34:32.404Z,34.00
2023-06-07T12:35:33.487Z,34.03
2023-06-07T12:36:32.526Z,34.04
2023-06-07T12:37:33.603Z,34.11
2023-06-07T12:38:33.651Z,34.01
2023-06-07T12:39:32.751Z,34.03
2023-06-07T12:40:32.816Z,34.01
2023-06-07T12:41:34.283Z,33.99
2023-06-07T12:42:32.924Z,34.06
2023-06-07T12:43:33.045Z,34.01
2023-06-07T12:44:34.043Z,34.00
2023-06-07T12:45:34.097Z,33.97
2023-06-07T12:46:34.205Z,34.04
2023-06-07T12:47:33.230Z,33.98
2023-06-07T12:48:33.258Z,33.92
2023-06-07T12:49:34.369Z,33.97
2023-06-07T12:50:34.372Z,33.92
2023-06-07T12:51:33.423Z,33.98
2023-06-07T12:52:34.486Z,33.87
2023-06-07T12:53:34.532Z,33.92
2023-06-07T12:54:34.569Z,33.91
2023-06-07T12:55:33.634Z,33.98
2023-06-07T12:56:33.691Z,33.96
2023-06-07T12:57:33.715Z,33.98
2023-06-07T12:58:34.777Z,33.92
2023-06-07T12:59:34.901Z,33.93
2023-06-07T13:00:34.848Z,33.92
2023-06-07T13:01:34.993Z,33.92
2023-06-07T13:02:35.015Z,33.93
2023-06-07T13:03:34.107Z,33.86
2023-06-07T13:04:35.079Z,33.87
2023-06-07T13:05:34.105Z,33.90
2023-06-07T13:06:35.142Z,33.89
2023-06-07T13:07:35.195Z,33.84
2023-06-07T13:08:35.208Z,33.74
2023-06-07T13:09:35.414Z,33.88
2023-06-07T13:10:34.273Z,33.87
2023-06-07T13:11:35.303Z,33.94
2023-06-07T13:12:34.336Z,33.88
2023-06-07T13:13:35.396Z,33.86
2023-06-07T13:14:35.485Z,33.84
2023-06-07T13:15:34.625Z,33.80
2023-06-07T13:16:34.609Z,33.68
2023-06-07T13:17:35.953Z,33.69
2023-06-07T13:18:35.665Z,33.54
2023-06-07T13:19:34.660Z,33.44
2023-06-07T13:20:35.712Z,33.33
2023-06-07T13:21:34.758Z,33.33
2023-06-07T13:22:35.815Z,33.22
2023-06-07T13:23:35.919Z,33.16
2023-06-07T13:24:35.888Z,33.37
2023-06-07T13:25:35.959Z,33.03
2023-06-07T13:26:35.964Z,33.11
2023-06-07T13:27:35.002Z,32.89
2023-06-07T13:28:36.039Z,33.03
2023-06-07T13:29:35.120Z,33.09
2023-06-07T13:30:36.127Z,33.08
2023-06-07T13:31:36.218Z,33.13
2023-06-07T13:32:35.332Z,33.19
2023-06-07T13:33:35.222Z,33.12
2023-06-07T13:34:35.263Z,33.09
2023-06-07T13:35:37.940Z,33.22
2023-06-07T13:36:35.287Z,33.11
2023-06-07T13:37:35.264Z,33.17
2023-06-07T13:38:36.265Z,33.19
2023-06-07T13:39:36.245Z,33.13
2023-06-07T13:40:36.252Z,33.09
2023-06-07T13:41:36.241Z,33.15
2023-06-07T13:42:36.240Z,33.20
2023-06-07T13:43:51.304Z,33.11
2023-06-07T13:44:36.225Z,33.22
2023-06-07T13:45:36.234Z,33.20
2023-06-07T13:46:35.274Z,33.23
2023-06-07T13:47:35.291Z,33.26
2023-06-07T13:48:35.213Z,33.22
2023-06-07T13:49:36.193Z,33.25
2023-06-07T13:50:36.156Z,33.23
2023-06-07T13:51:35.214Z,33.24
2023-06-07T13:52:36.169Z,33.31
2023-06-07T13:53:35.200Z,33.24
2023-06-07T13:54:36.227Z,33.22
2023-06-07T13:55:36.124Z,33.29
2023-06-07T13:56:36.139Z,33.21
2023-06-07T13:57:35.114Z,33.25
2023-06-07T13:58:35.150Z,33.27
2023-06-07T13:59:36.180Z,33.25
2023-06-07T14:00:35.216Z,33.24
2023-06-07T14:01:35.353Z,33.22
2023-06-07T14:02:36.507Z,33.28
2023-06-07T14:03:36.484Z,33.24
2023-06-07T14:04:36.402Z,33.34
2023-06-07T14:05:36.579Z,33.31
2023-06-07T14:06:35.356Z,33.26
2023-06-07T14:07:35.441Z,33.29
2023-06-07T14:08:35.418Z,33.33
2023-06-07T14:09:36.544Z,33.25
2023-06-07T14:10:35.591Z,33.34
2023-06-07T14:11:36.521Z,33.32
2023-06-07T14:12:35.520Z,33.40
2023-06-07T14:13:36.556Z,33.37
2023-06-07T14:14:36.602Z,33.37
2023-06-07T14:15:35.614Z,33.38
2023-06-07T14:16:36.700Z,33.37
2023-06-07T14:17:35.694Z,33.35
2023-06-07T14:18:35.683Z,33.38
2023-06-07T14:19:35.755Z,33.39
2023-06-07T14:20:35.754Z,33.38
2023-06-07T14:21:36.799Z,33.41
2023-06-07T14:22:36.788Z,33.43
2023-06-07T14:23:36.811Z,33.42
2023-06-07T14:24:35.843Z,33.40
2023-06-07T14:25:35.869Z,33.39
2023-06-07T14:26:36.891Z,33.37
2023-06-07T14:27:36.888Z,33.35
2023-06-07T14:28:35.953Z,33.33
2023-06-07T14:29:36.929Z,33.30
2023-06-07T14:30:36.946Z,33.30
2023-06-07T14:31:37.034Z,33.31
2023-06-07T14:32:36.988Z,33.36
2023-06-07T14:33:36.967Z,33.34
2023-06-07T14:34:36.983Z,33.30
2023-06-07T14:35:37.018Z,33.31
2023-06-07T14:36:37.783Z,33.31
2023-06-07T14:37:36.999Z,33.28
2023-06-07T14:38:37.045Z,33.17
2023-06-07T14:39:37.032Z,33.29
2023-06-07T14:40:36.990Z,33.27
2023-06-07T14:41:36.969Z,33.31
2023-06-07T14:42:37.112Z,33.26
2023-06-07T14:43:35.966Z,33.25
2023-06-07T14:44:35.965Z,33.34
2023-06-07T14:45:36.017Z,33.32
2023-06-07T14:46:35.940Z,33.36
2023-06-07T14:47:35.944Z,33.38
2023-06-07T14:48:36.941Z,33.37
2023-06-07T14:49:35.914Z,33.39
2023-06-07T14:50:35.924Z,33.41
2023-06-07T14:51:35.934Z,33.46
2023-06-07T14:52:36.895Z,33.44
2023-06-07T14:53:36.915Z,33.43
2023-06-07T14:54:36.901Z,33.48
2023-06-07T14:55:35.888Z,33.45
2023-06-07T14:56:35.869Z,33.42
2023-06-07T14:57:35.861Z,33.44
2023-06-07T14:58:35.851Z,33.41
2023-06-07T14:59:37.089Z,33.38
2023-06-07T15:00:35.864Z,33.38
2023-06-07T15:01:35.869Z,33.39
2023-06-07T15:02:35.848Z,33.41
2023-06-07T15:03:35.907Z,33.43
2023-06-07T15:04:35.831Z,33.40
2023-06-07T15:05:36.804Z,33.40
2023-06-07T15:06:35.785Z,33.39
2023-06-07T15:07:35.828Z,33.42
2023-06-07T15:08:35.810Z,33.47
2023-06-07T15:09:35.809Z,33.43
2023-06-07T15:10:35.800Z,33.43
2023-06-07T15:11:36.816Z,33.45
2023-06-07T15:12:35.761Z,33.46
2023-06-07T15:13:36.767Z,33.39
2023-06-07T15:14:35.746Z,33.34
2023-06-07T15:15:36.761Z,33.38
2023-06-07T15:16:36.841Z,33.35
2023-06-07T15:17:36.756Z,33.24
2023-06-07T15:18:35.723Z,33.24
2023-06-07T15:19:36.711Z,33.23
2023-06-07T15:20:35.688Z,33.15
2023-06-07T15:21:35.734Z,33.21
2023-06-07T15:22:36.710Z,33.24
2023-06-07T15:23:35.731Z,33.25
2023-06-07T15:24:35.684Z,33.29
2023-06-07T15:25:35.679Z,33.33
2023-06-07T15:26:36.656Z,33.39
2023-06-07T15:27:35.637Z,33.35
2023-06-07T15:28:36.648Z,33.27
2023-06-07T15:29:36.665Z,33.24
2023-06-07T15:30:35.629Z,33.32
2023-06-07T15:31:36.645Z,33.31
2023-06-07T15:32:35.676Z,33.34
2023-06-07T15:33:35.600Z,33.37
2023-06-07T15:34:36.589Z,33.37
2023-06-07T15:35:36.601Z,33.29
2023-06-07T15:36:36.605Z,33.30
2023-06-07T15:37:35.574Z,33.34
2023-06-07T15:38:35.562Z,33.38
2023-06-07T15:39:36.602Z,33.35
2023-06-07T15:40:35.561Z,33.27
2023-06-07T15:41:36.564Z,33.26
2023-06-07T15:42:36.542Z,33.29
2023-06-07T15:43:36.561Z,33.30
2023-06-07T15:44:36.530Z,33.30
2023-06-07T15:45:36.545Z,33.34
2023-06-07T15:46:38.261Z,33.36
2023-06-07T15:47:35.579Z,33.40
2023-06-07T15:48:36.513Z,33.35
2023-06-07T15:49:36.494Z,33.40
2023-06-07T15:50:35.502Z,33.39
2023-06-07T15:51:35.480Z,33.44
2023-06-07T15:52:36.486Z,33.40
2023-06-07T15:53:36.475Z,33.46
2023-06-07T15:54:35.487Z,33.48
2023-06-07T15:55:35.552Z,33.41
2023-06-07T15:56:36.445Z,33.35
2023-06-07T15:57:35.435Z,33.41
2023-06-07T15:58:35.442Z,33.36
2023-06-07T15:59:36.428Z,33.36
2023-06-07T16:00:38.861Z,33.31
2023-06-07T16:01:36.480Z,33.32
2023-06-07T16:02:36.415Z,33.29
2023-06-07T16:03:50.670Z,33.30
2023-06-07T16:04:36.494Z,33.20
2023-06-07T16:05:36.384Z,33.30
2023-06-07T16:06:36.374Z,33.30
2023-06-07T16:07:36.387Z,33.38
2023-06-07T16:08:35.344Z,33.41
2023-06-07T16:09:35.343Z,33.31
2023-06-07T16:10:36.325Z,33.48
2023-06-07T16:11:35.359Z,33.44
2023-06-07T16:12:36.315Z,33.47
2023-06-07T16:13:36.318Z,33.54
2023-06-07T16:14:36.330Z,33.48
2023-06-07T16:15:35.285Z,33.47
2023-06-07T16:16:36.398Z,33.42
2023-06-07T16:17:36.350Z,33.50
2023-06-07T16:18:35.293Z,33.46
2023-06-07T16:19:35.288Z,33.46
2023-06-07T16:20:36.258Z,33.46
2023-06-07T16:21:35.256Z,33.47
2023-06-07T16:22:35.259Z,33.40
2023-06-07T16:23:35.282Z,33.43
2023-06-07T16:24:35.271Z,33.48
2023-06-07T16:25:36.385Z,33.34
2023-06-07T16:26:35.235Z,33.39
2023-06-07T16:27:35.234Z,33.33
2023-06-07T16:28:35.199Z,33.35
2023-06-07T16:29:35.213Z,33.38
2023-06-07T16:30:37.955Z,33.33
2023-06-07T16:31:36.314Z,33.46
2023-06-07T16:32:36.209Z,33.47
2023-06-07T16:33:36.171Z,33.52
2023-06-07T16:34:36.163Z,33.52
2023-06-07T16:35:36.163Z,33.46
2023-06-07T16:36:35.160Z,33.52
2023-06-07T16:37:35.152Z,33.50
2023-06-07T16:38:36.143Z,33.55
2023-06-07T16:39:35.148Z,33.54
2023-06-07T16:40:35.122Z,33.58
2023-06-07T16:42:35.136Z,33.59
2023-06-07T16:43:35.145Z,33.58
2023-06-07T16:44:35.181Z,33.57
2023-06-07T16:45:36.089Z,33.58
2023-06-07T16:46:36.126Z,33.53
2023-06-07T16:47:35.122Z,33.53
2023-06-07T16:48:36.073Z,33.53
2023-06-07T16:49:35.113Z,33.58
2023-06-07T16:50:36.047Z,33.54
2023-06-07T16:51:35.043Z,33.45
2023-06-07T16:52:35.027Z,33.44
2023-06-07T16:53:36.049Z,33.44
2023-06-07T16:54:35.039Z,33.43
2023-06-07T16:55:35.366Z,33.53
2023-06-07T16:56:36.006Z,33.63
2023-06-07T16:57:38.850Z,33.57
2023-06-07T16:58:34.996Z,33.58
2023-06-07T16:59:35.018Z,33.66
2023-06-07T17:00:35.987Z,33.54
2023-06-07T17:01:36.049Z,33.61
2023-06-07T17:02:35.163Z,33.64
2023-06-07T17:03:36.077Z,33.61
2023-06-07T17:04:34.954Z,33.64
2023-06-07T17:05:34.987Z,33.63
2023-06-07T17:06:34.948Z,33.63
2023-06-07T17:07:34.931Z,33.57
2023-06-07T17:08:34.950Z,33.65
2023-06-07T17:09:35.918Z,33.69
2023-06-07T17:10:35.919Z,33.68
2023-06-07T17:11:35.894Z,33.65
2023-06-07T17:12:35.903Z,33.70
2023-06-07T17:13:34.888Z,33.65
2023-06-07T17:14:35.895Z,33.65
2023-06-07T17:15:35.904Z,33.71
2023-06-07T17:16:35.947Z,33.65
2023-06-07T17:17:36.026Z,33.68
2023-06-07T17:18:34.862Z,33.76
2023-06-07T17:19:34.856Z,33.73
2023-06-07T17:20:34.870Z,33.75
2023-06-07T17:21:35.861Z,33.84
2023-06-07T17:22:34.818Z,33.85
2023-06-07T17:23:35.861Z,33.89
2023-06-07T17:24:35.903Z,33.89
2023-06-07T17:25:34.848Z,33.88
2023-06-07T17:26:35.881Z,33.87
2023-06-07T17:27:34.902Z,33.81
2023-06-07T17:28:35.916Z,33.84
2023-06-07T17:29:34.948Z,33.84
2023-06-07T17:30:34.944Z,33.84
2023-06-07T17:31:36.032Z,33.91
2023-06-07T17:32:36.096Z,33.88
2023-06-07T17:33:35.003Z,33.89
2023-06-07T17:34:36.028Z,34.01
2023-06-07T17:35:35.020Z,34.00
2023-06-07T17:36:35.031Z,34.00
2023-06-07T17:37:36.059Z,33.95
2023-06-07T17:38:36.074Z,34.00
2023-06-07T17:39:35.116Z,33.90
2023-06-07T17:40:36.103Z,33.95
2023-06-07T17:41:36.115Z,33.93
2023-06-07T17:42:35.159Z,33.98
2023-06-07T17:43:36.172Z,34.04
2023-06-07T17:44:36.218Z,34.00
2023-06-07T17:45:35.232Z,33.95
2023-06-07T17:46:35.345Z,33.95
2023-06-07T17:47:36.296Z,33.94
2023-06-07T17:48:36.266Z,34.02
2023-06-07T17:49:36.283Z,33.98
2023-06-07T17:51:36.299Z,34.02
2023-06-07T17:52:35.306Z,33.95
2023-06-07T17:53:35.300Z,34.09
2023-06-07T17:54:35.295Z,34.09
2023-06-07T17:55:35.293Z,34.16
2023-06-07T17:56:36.288Z,34.12
2023-06-07T17:57:35.270Z,34.17
2023-06-07T17:58:36.278Z,34.15
2023-06-07T17:59:36.304Z,34.16
2023-06-07T18:00:35.225Z,34.18
2023-06-07T18:01:36.265Z,34.16
2023-06-07T18:02:35.269Z,34.16
2023-06-07T18:03:36.343Z,34.19
2023-06-07T18:04:36.228Z,34.22
2023-06-07T18:05:35.218Z,34.23
2023-06-07T18:06:35.205Z,34.17
2023-06-07T18:07:36.249Z,34.19
2023-06-07T18:08:36.193Z,34.22
2023-06-07T18:09:35.179Z,34.09
2023-06-07T18:10:36.212Z,34.09
2023-06-07T18:11:35.167Z,34.17
2023-06-07T18:12:35.177Z,34.18
2023-06-07T18:13:35.150Z,34.20
2023-06-07T18:14:35.153Z,34.21
2023-06-07T18:15:35.136Z,34.27
2023-06-07T18:16:35.233Z,34.27
2023-06-07T18:17:36.152Z,34.19
2023-06-07T18:18:36.128Z,34.13
2023-06-07T18:19:35.144Z,34.21
2023-06-07T18:20:35.141Z,34.22
2023-06-07T18:21:35.100Z,34.24
2023-06-07T18:22:36.085Z,34.27
2023-06-07T18:23:36.111Z,34.30
2023-06-07T18:24:35.065Z,34.27
2023-06-07T18:25:36.214Z,34.26